• Join FlightAware (Why Join?)
  • Login
  • US Flag 
04:04AM EDT


 

Airport Tracker/Info


-or-


 

Live Flight TrackerFlight Track Log ✈ DAL930 ✈ 08-Apr-2013 ✈ KLGA - KFLL

Flight Track Log - Related Links

Times and Time Zones

All times are in EDT time to prevent confusion due to time zone crossing. See the DAL930 flight status page for this flight to view local times or setup timezone preferences in your user account.

Time Position Orientation Groundspeed Altitude Reporting Facility
EDT Latitude Longitude Course Direction KTS MPH feet Rate Location/Type
11:28AM 40.7167 -73.8167 217° Southwest 232 267 2,400  Level New York TRACON
11:29AM 40.6667 -73.8500 207° Southwest 244 281 5,100 2,940 Climbing New York TRACON
11:30AM 40.6000 -73.9000 210° Southwest 268 308 8,000 2,760 Climbing New York TRACON
11:31AM 40.5333 -73.9500 210° Southwest 276 318 10,700 1,800 Climbing New York TRACON
11:34AM 40.1238 -74.1762 217° Southwest  Level FlightAware Approximate
11:34AM 40.3183 -74.0733 204° Southwest 352 405 14,200  Level Washington Center
11:35AM 40.2192 -74.1381 206° Southwest 375 432 16,900 2,100 Climbing Washington Center
11:36AM 40.1286 -74.2322 218° Southwest 411 473 18,500 1,680 Climbing Washington Center
11:37AM 40.0483 -74.3206 220° Southwest 435 501 20,300 2,040 Climbing Washington Center
11:38AM 39.9453 -74.4306 219° Southwest 440 506 22,600 2,280 Climbing Washington Center
11:39AM 39.8669 -74.5156 220° Southwest 430 495 24,900 1,620 Climbing Washington Center
11:40AM 39.7658 -74.6225 219° Southwest 430 495 25,900 1,260 Climbing Washington Center
11:41AM 39.6811 -74.7125 219° Southwest 435 501 27,500 1,620 Climbing Washington Center
11:42AM 39.5819 -74.8214 220° Southwest 435 501 29,200 1,500 Climbing Washington Center
11:43AM 39.4969 -74.9083 218° Southwest 435 501 30,500 1,200 Climbing Washington Center
11:44AM 39.3953 -75.0169 220° Southwest 440 506 31,600 1,380 Climbing Washington Center
11:45AM 39.3144 -75.1006 219° Southwest 440 506 33,300 1,200 Climbing Washington Center
11:46AM 39.1939 -75.1606 201° Southwest 419 482 34,000 300 Climbing Washington Center
11:47AM 39.1003 -75.2011 199° South 419 482 34,000  Level Washington Center
11:48AM 38.9878 -75.2472 198° South 419 482 34,000  Level Washington Center
11:49AM 38.8775 -75.2931 198° South 424 488 34,000  Level Washington Center
11:50AM 38.7650 -75.3414 199° South 424 488 34,000  Level Washington Center
11:51AM 38.6567 -75.3897 199° South 424 488 34,000  Level Washington Center
11:52AM 38.5381 -75.4589 205° Southwest 430 495 34,000  Level Washington Center
11:53AM 38.4336 -75.5203 205° Southwest 430 495 34,000  Level Washington Center
11:54AM 38.3317 -75.5811 205° Southwest 419 482 34,000  Level Washington Center
11:55AM 38.2272 -75.6419 205° Southwest 414 476 34,000  Level Washington Center
11:56AM 38.1250 -75.7053 206° Southwest 414 476 34,000  Level Washington Center
11:57AM 38.0250 -75.7736 208° Southwest 409 471 34,000  Level Washington Center
11:58AM 37.9206 -75.8286 203° Southwest 409 471 34,000  Level Washington Center
11:59AM 37.8183 -75.8942 207° Southwest 409 471 34,000 -60 Level Washington Center
12:00PM 37.7181 -75.9619 208° Southwest 409 471 33,900 -60 Descending Washington Center
12:01PM 37.6175 -76.0217 205° Southwest 409 471 33,900  Level Washington Center
12:02PM 37.5131 -76.0842 205° Southwest 409 471 33,900  Level Washington Center
12:03PM 37.4086 -76.1461 205° Southwest 409 471 33,900  Level Washington Center
12:04PM 37.3019 -76.2028 203° Southwest 409 471 34,000  Climbing Washington Center
12:05PM 37.1972 -76.2619 204° Southwest 414 476 34,000  Level Washington Center
12:06PM 37.0947 -76.3261 207° Southwest 414 476 34,000 60 Level Washington Center
12:07PM 36.9878 -76.3875 205° Southwest 419 482 34,200  Climbing Washington Center
12:08PM 36.8831 -76.4489 205° Southwest 419 482 34,000 -120 Descending Washington Center
12:09PM 36.7783 -76.5072 204° Southwest 419 482 34,000  Level Washington Center
12:10PM 36.6736 -76.5708 206° Southwest 419 482 34,000  Level Washington Center
12:11PM 36.5689 -76.6342 206° Southwest 419 482 34,000  Level Washington Center
12:12PM 36.4639 -76.6947 205° Southwest 424 488 34,000  Level Washington Center
12:13PM 36.3569 -76.7553 205° Southwest 419 482 34,000  Level Washington Center
12:14PM 36.2519 -76.8128 204° Southwest 419 482 34,000 -60 Level Washington Center
12:15PM 36.1472 -76.8703 204° Southwest 419 482 33,900 -60 Descending Washington Center
12:16PM 36.0400 -76.9303 204° Southwest 419 482 33,900  Level Washington Center
12:17PM 35.9350 -76.9900 205° Southwest 419 482 33,900  Level Washington Center
12:18PM 35.8300 -77.0497 205° Southwest 419 482 33,900  Level Washington Center
12:19PM 35.7292 -77.1119 207° Southwest 419 482 33,900  Level Washington Center
12:20PM 35.6344 -77.1664 205° Southwest 412 474 34,000  Climbing Washington Center
12:21PM 35.5314 -77.2231 204° Southwest 412 474 34,000  Level Washington Center
12:22PM 35.4264 -77.2819 205° Southwest 412 474 34,000  Level Washington Center
12:23PM 35.3211 -77.3408 205° Southwest 417 480 34,000  Level Washington Center
12:24PM 35.2139 -77.4022 205° Southwest 423 487 34,000  Level Washington Center
12:25PM 35.1086 -77.4581 203° Southwest 418 481 34,000  Level Washington Center
12:26PM 35.0033 -77.5167 205° Southwest 418 481 34,000  Level Washington Center
12:27PM 34.8961 -77.5747 204° Southwest 418 481 34,000  Level Washington Center
12:28PM 34.7928 -77.6356 206° Southwest 418 481 34,000  Level Washington Center
12:29PM 34.6728 -77.6983 203° Southwest 423 487 34,000  Level Washington Center
12:30PM 34.5675 -77.7561 204° Southwest 423 487 34,000  Level Washington Center
12:31PM 34.4619 -77.8186 206° Southwest 423 487 34,000  Level Washington Center
12:32PM 34.3544 -77.8736 203° Southwest 423 487 34,000  Level Washington Center
12:36PM 33.9169 -78.0028 194° South 444 511 34,000  Level Jacksonville Center
12:37PM 33.7889 -78.0400 194° South 449 517 34,000  Level Jacksonville Center
12:38PM 33.6817 -78.0708 193° South 449 517 34,000 -60 Level Jacksonville Center
12:39PM 33.5661 -78.1044 194° South 449 517 33,900  Descending Jacksonville Center
12:40PM 33.4506 -78.1356 193° South 444 511 34,000  Climbing Jacksonville Center
12:41PM 33.3328 -78.1717 194° South 444 511 34,000  Level Jacksonville Center
12:42PM 33.2172 -78.2028 193° South 439 505 34,000  Level Jacksonville Center
12:43PM 33.0994 -78.2336 192° South 439 505 34,000  Level Jacksonville Center
12:44PM 32.9817 -78.2669 193° South 434 499 34,000 -60 Level Jacksonville Center
12:45PM 32.8639 -78.2978 192° South 434 499 33,900 -60 Descending Jacksonville Center
12:46PM 32.7442 -78.3361 195° South 434 499 33,900  Level Jacksonville Center
12:47PM 32.6283 -78.3689 193° South 434 499 33,900  Level Jacksonville Center
12:48PM 32.5125 -78.3994 193° South 429 494 34,000  Climbing Jacksonville Center
12:49PM 32.3969 -78.4322 193° South 429 494 34,000  Level Jacksonville Center
12:50PM 32.2711 -78.4728 195° South 429 494 34,000  Level Jacksonville Center
12:51PM 32.1575 -78.5075 195° South 429 494 34,000  Level Jacksonville Center
12:52PM 32.0375 -78.5403 193° South 429 494 34,000  Level Jacksonville Center
12:53PM 31.9258 -78.5725 194° South 429 494 34,000  Level Jacksonville Center
12:54PM 31.8081 -78.6050 193° South 439 505 34,000  Level Jacksonville Center
12:55PM 31.6922 -78.6419 195° South 434 499 34,000  Level Jacksonville Center
12:56PM 31.5744 -78.6742 193° South 429 494 34,000  Level Jacksonville Center
12:57PM 31.4564 -78.7064 193° South 424 488 34,000  Level Jacksonville Center
12:58PM 31.3408 -78.7406 194° South 434 499 34,000  Level Jacksonville Center
12:59PM 31.2208 -78.7775 195° South 438 504 34,000  Level Jacksonville Center
01:00PM 31.1069 -78.8067 192° South 438 504 34,000  Level Jacksonville Center
01:01PM 30.9850 -78.8436 195° South 437 503 34,000 -60 Level Jacksonville Center
01:02PM 30.8650 -78.8753 193° South 437 503 33,900  Descending Jacksonville Center
01:03PM 30.7469 -78.9094 194° South 437 503 34,000  Climbing Jacksonville Center
01:04PM 30.6292 -78.9433 194° South 437 503 34,000 -60 Level Jacksonville Center
01:04PM 30.5378 -78.9672 193° South 448 516 33,900  Descending Miami Center
01:05PM 30.4269 -78.9986 194° South 448 516 34,000  Climbing Miami Center
01:06PM 30.3014 -79.0322 193° South 448 516 34,000  Level Miami Center
01:07PM 30.1861 -79.0633 193° South 448 516 34,000  Level Miami Center
01:08PM 30.0689 -79.0922 192° South 437 503 34,000  Level Miami Center
01:09PM 29.9536 -79.1378 199° South 437 503 34,000  Level Miami Center
01:10PM 29.8344 -79.1639 191° South 437 503 34,000  Level Miami Center
01:11PM 29.7150 -79.1900 191° South 437 503 34,000  Level Miami Center
01:12PM 29.5978 -79.2186 192° South 437 503 34,000  Level Miami Center
01:13PM 29.4742 -79.2564 195° South 432 497 34,000  Level Miami Center
01:14PM 29.3547 -79.2822 191° South 433 498 34,000  Level Miami Center
01:15PM 29.2375 -79.3083 191° South 433 498 34,000  Level Miami Center
01:16PM 29.1222 -79.3389 193° South 427 491 34,000  Level Miami Center
01:17PM 29.0069 -79.3672 192° South 427 491 34,000  Level Miami Center
01:18PM 28.8897 -79.3931 191° South 433 498 34,000  Level Miami Center
01:19PM 28.7744 -79.4236 193° South 433 498 34,000  Level Miami Center
01:20PM 28.6569 -79.4517 192° South 433 498 34,000  Level Miami Center
01:21PM 28.5397 -79.4794 192° South 433 498 34,000  Level Miami Center
01:22PM 28.4222 -79.5097 193° South 433 498 34,000  Level Miami Center
01:23PM 28.3028 -79.5400 193° South 433 498 34,000  Level Miami Center
01:24PM 28.1811 -79.5678 191° South 433 498 34,000  Level Miami Center
01:25PM 28.0594 -79.5956 191° South 438 504 34,000  Level Miami Center
01:26PM 27.9378 -79.6256 192° South 443 510 34,000  Level Miami Center
01:27PM 27.8331 -79.6511 192° South 443 510 34,000 -300 Level Miami Center
01:28PM 27.6989 -79.6831 192° South 443 510 33,400 -1,800 Descending Miami Center
01:29PM 27.5769 -79.7153 193° South 449 517 30,500 -3,240 Descending Miami Center
01:30PM 27.4556 -79.7425 191° South 449 517 27,000 -3,300 Descending Miami Center
01:31PM 27.3383 -79.7467 182° South 459 528 24,000 -2,940 Descending Miami Center
01:32PM 27.2133 -79.7364 176° South 459 528 21,200 -2,820 Descending Miami Center
01:33PM 27.0800 -79.7217 174° South 446 513 18,400 -2,520 Descending Miami Center
01:34PM 26.9633 -79.7094 175° South 430 495 16,200 -1,740 Descending Miami Center
01:35PM 26.8653 -79.6978 174° South 407 468 15,000 -840 Descending Miami Center
01:36PM 26.8006 -79.6936 177° South 385 443 15,000  Level Miami Center
01:36PM 26.7547 -79.6925 179° South 402 463 15,000 -780 Level Miami Center
01:37PM 26.7042 -79.7078 195° South 368 423 14,300 -2,400 Descending Miami Center
01:37PM 26.6494 -79.7319 202° Southwest 373 429 12,600 -2,520 Descending Miami Center
01:38PM 26.6114 -79.7519 205° Southwest 367 422 11,700 -2,040 Descending Miami Center
01:38PM 26.5589 -79.7739 201° Southwest 373 429 10,600 -1,620 Descending Miami Center
01:39PM 26.5208 -79.7914 202° Southwest 327 376 10,100 -1,620 Descending Miami Center
01:39PM 26.4786 -79.8136 205° Southwest 330 380 9,000 -1,920 Descending Miami Center
01:40PM 26.4428 -79.8314 204° Southwest 290 334 8,200 -1,020 Descending Miami Center
01:40PM 26.4050 -79.8489 203° Southwest 304 350 8,000 -240 Descending Miami Center
01:41PM 26.3731 -79.8667 207° Southwest 284 327 8,000 -420 Level Miami Center
01:41PM 26.3411 -79.8983 222° Southwest 286 329 7,600 -1,080 Descending Miami Center
01:42PM 26.3092 -79.9275 219° Southwest 283 326 6,900 -1,440 Descending Miami Center
01:42PM 26.2814 -79.9547 221° Southwest 286 329 6,200 -900 Descending Miami Center
01:43PM 26.2494 -79.9839 219° Southwest 278 320 6,000 -240 Descending Miami Center
01:43PM 26.2325 -80.0044 227° Southwest 280 322 6,000  Level Miami Center
01:44PM 26.1919 -80.0428 220° Southwest 274 315 6,000  Level Miami Center
01:44PM 26.1789 -80.0586 227° Southwest 275 316 6,000  Level Miami Center
01:45PM 26.1633 -80.1019 248° West 223 257 6,000  Level Miami Center
01:45PM 26.1586 -80.1275 258° West 243 280 6,000 -360 Level Miami Center
01:46PM 26.1472 -80.1756 255° West 225 259 5,600 -1,140 Descending Miami Center
01:47PM 26.1478 -80.2450 271° West 218 251 4,200 -840 Descending Miami Center
01:48PM 26.1439 -80.3144 266° West 220 253 3,900 -720 Descending Miami Center
01:49PM 26.1019 -80.3225 190° South 188 216 2,900 -1,080 Descending Miami Center
01:50PM 26.0761 -80.2731 120° Southeast 180 207 1,900 -900 Descending Miami Center
01:51PM 26.0750 -80.2244 91° East 138 159 1,100 -840 Descending Miami Center
01:52PM 26.0739 -80.1806 92° East 141 162 300 -840 Descending Miami Center